Terminal Aerodrome Forecast
Issued by NWS

Home | Current Version | Previous Version | Graphics & Text | Print | Product List | Glossary On
Versions: 1 2 3 4 5 6 7 8 9 10 11 12 13 14 15 16
000
FTUS43 KIWX 281700
TAFSBN
TAF
KSBN 281720Z 2818/2918 16012KT P6SM FEW120 BKN250
     FM290300 16014G22KT P6SM SCT070 OVC150 WS020/19045KT PROB30
      2906/2909 -FZRA OVC050
     FM290900 17013G20KT 6SM -SHRA BR OVC025 WS020/21050KT
     FM291300 21012KT 4SM -SHRA OVC008
     FM291700 31015G25KT 4SM -RASN BKN008 OVC015=

USA.gov is the U.S. government's official web portal to all federal, state and local government web resources and services.